Terminal Aerodrome Forecast
Issued by NWS Pittsburgh, PA

Current Version | Previous Version | Graphics & Text | Print | Product List | Glossary On
Versions: 1 2 3 4 5 6 7 8 9 10 11 12 13 14 15 16 17 18 19 20 21 22 23 24 25 26 27 28 29 30 31 32 33 34 35 36 37 38 39
154
FTUS41 KPBZ 281605 AAB
TAFPIT
TAF AMD
KPIT 281605Z 2816/2918 06005KT 2SM -SHRA OVC008
     FM281800 06009KT 5SM BR VCSH OVC010
     FM290300 36005KT 5SM BR VCSH OVC008
     FM291500 08003KT 5SM BR OVC015=

USA.gov is the U.S. government's official web portal to all federal, state and local government web resources and services.